sensor_id;sensor_type;location;lat;lon;timestamp;pressure;altitude;pressure_sealevel;temperature;humidity
77171;BME280;66144;50.020;14.422;2023-09-08T00:02:06;99490.22;;;17.02;71.54
77171;BME280;66144;50.020;14.422;2023-09-08T00:04:31;99490.50;;;16.96;71.70
77171;BME280;66144;50.020;14.422;2023-09-08T00:06:58;99490.75;;;16.94;71.92
77171;BME280;66144;50.020;14.422;2023-09-08T00:09:24;99488.41;;;16.92;72.35
77171;BME280;66144;50.020;14.422;2023-09-08T00:11:49;99487.66;;;16.77;72.60
77171;BME280;66144;50.020;14.422;2023-09-08T00:14:15;99489.50;;;16.56;73.25
77171;BME280;66144;50.020;14.422;2023-09-08T00:16:40;99487.69;;;16.67;72.77
77171;BME280;66144;50.020;14.422;2023-09-08T00:19:08;99491.91;;;16.68;72.91
77171;BME280;66144;50.020;14.422;2023-09-08T00:21:34;99487.16;;;16.65;72.86
77171;BME280;66144;50.020;14.422;2023-09-08T00:23:59;99490.56;;;16.60;72.78
77171;BME280;66144;50.020;14.422;2023-09-08T00:26:26;99486.38;;;16.49;73.02
77171;BME280;66144;50.020;14.422;2023-09-08T00:28:52;99484.53;;;16.44;73.36
77171;BME280;66144;50.020;14.422;2023-09-08T00:31:20;99483.47;;;16.50;72.77
77171;BME280;66144;50.020;14.422;2023-09-08T00:33:45;99473.97;;;16.44;73.05
77171;BME280;66144;50.020;14.422;2023-09-08T00:36:11;99482.41;;;16.41;72.91
77171;BME280;66144;50.020;14.422;2023-09-08T00:38:40;99471.38;;;16.34;73.27
77171;BME280;66144;50.020;14.422;2023-09-08T00:41:06;99484.03;;;16.22;73.84
77171;BME280;66144;50.020;14.422;2023-09-08T00:43:33;99477.97;;;16.32;72.96
77171;BME280;66144;50.020;14.422;2023-09-08T00:45:58;99466.09;;;16.19;73.69
77171;BME280;66144;50.020;14.422;2023-09-08T00:48:26;99479.28;;;16.19;73.77
77171;BME280;66144;50.020;14.422;2023-09-08T00:50:52;99475.31;;;16.16;73.36
77171;BME280;66144;50.020;14.422;2023-09-08T00:53:18;99469.81;;;16.13;73.61
77171;BME280;66144;50.020;14.422;2023-09-08T00:55:44;99477.72;;;16.08;74.00
77171;BME280;66144;50.020;14.422;2023-09-08T00:58:11;99475.09;;;16.13;73.55
77171;BME280;66144;50.020;14.422;2023-09-08T01:00:39;99476.66;;;16.09;73.59
77171;BME280;66144;50.020;14.422;2023-09-08T01:03:05;99474.00;;;15.99;74.10
77171;BME280;66144;50.020;14.422;2023-09-08T01:05:30;99481.41;;;15.97;74.26
77171;BME280;66144;50.020;14.422;2023-09-08T01:07:59;99481.91;;;15.99;74.10
77171;BME280;66144;50.020;14.422;2023-09-08T01:10:25;99485.09;;;15.96;74.03
77171;BME280;66144;50.020;14.422;2023-09-08T01:12:51;99482.19;;;15.87;74.46
77171;BME280;66144;50.020;14.422;2023-09-08T01:15:17;99476.66;;;15.88;74.07
77171;BME280;66144;50.020;14.422;2023-09-08T01:17:45;99481.41;;;15.86;73.87
77171;BME280;66144;50.020;14.422;2023-09-08T01:20:26;99480.88;;;15.84;74.26
77171;BME280;66144;50.020;14.422;2023-09-08T01:25:52;99481.41;;;15.76;74.44
77171;BME280;66144;50.020;14.422;2023-09-08T01:28:19;99484.84;;;15.77;74.16
77171;BME280;66144;50.020;14.422;2023-09-08T01:30:56;99484.56;;;15.73;74.14
77171;BME280;66144;50.020;14.422;2023-09-08T01:33:22;99482.97;;;15.72;74.22
77171;BME280;66144;50.020;14.422;2023-09-08T01:35:48;99487.72;;;15.75;74.10
77171;BME280;66144;50.020;14.422;2023-09-08T01:38:17;99483.22;;;15.71;74.09
77171;BME280;66144;50.020;14.422;2023-09-08T01:40:42;99479.56;;;15.72;74.14
77171;BME280;66144;50.020;14.422;2023-09-08T01:43:08;99480.84;;;15.69;74.54
77171;BME280;66144;50.020;14.422;2023-09-08T01:45:33;99489.53;;;15.65;74.33
77171;BME280;66144;50.020;14.422;2023-09-08T01:47:59;99480.56;;;15.61;74.35
77171;BME280;66144;50.020;14.422;2023-09-08T01:50:24;99472.94;;;15.59;74.67
77171;BME280;66144;50.020;14.422;2023-09-08T01:53:02;99470.03;;;15.61;74.00
77171;BME280;66144;50.020;14.422;2023-09-08T01:55:28;99476.63;;;15.58;74.19
77171;BME280;66144;50.020;14.422;2023-09-08T01:57:53;99477.13;;;15.60;74.03
77171;BME280;66144;50.020;14.422;2023-09-08T02:00:21;99481.59;;;15.54;74.26
77171;BME280;66144;50.020;14.422;2023-09-08T02:02:47;99475.00;;;15.47;74.58
77171;BME280;66144;50.020;14.422;2023-09-08T02:05:12;99477.38;;;15.48;74.29
77171;BME280;66144;50.020;14.422;2023-09-08T02:07:38;99480.78;;;15.49;74.20
77171;BME280;66144;50.020;14.422;2023-09-08T02:10:04;99471.84;;;15.50;73.92
77171;BME280;66144;50.020;14.422;2023-09-08T02:12:29;99474.47;;;15.45;74.18
77171;BME280;66144;50.020;14.422;2023-09-08T02:14:58;99473.13;;;15.37;74.82
77171;BME280;66144;50.020;14.422;2023-09-08T02:17:25;99474.69;;;15.33;74.55
77171;BME280;66144;50.020;14.422;2023-09-08T02:19:50;99468.88;;;15.26;74.86
77171;BME280;66144;50.020;14.422;2023-09-08T02:22:16;99466.53;;;15.30;74.80
77171;BME280;66144;50.020;14.422;2023-09-08T02:24:41;99467.56;;;15.29;74.66
77171;BME280;66144;50.020;14.422;2023-09-08T02:27:09;99468.13;;;15.31;74.33
77171;BME280;66144;50.020;14.422;2023-09-08T02:29:34;99465.47;;;15.31;74.46
77171;BME280;66144;50.020;14.422;2023-09-08T02:32:00;99463.38;;;15.28;74.35
77171;BME280;66144;50.020;14.422;2023-09-08T02:34:26;99456.78;;;15.20;74.78
77171;BME280;66144;50.020;14.422;2023-09-08T02:36:52;99462.00;;;15.15;74.76
77171;BME280;66144;50.020;14.422;2023-09-08T02:39:17;99457.53;;;15.20;74.37
77171;BME280;66144;50.020;14.422;2023-09-08T02:41:45;99450.19;;;15.17;74.21
77171;BME280;66144;50.020;14.422;2023-09-08T02:44:11;99451.22;;;15.16;74.18
77171;BME280;66144;50.020;14.422;2023-09-08T02:46:37;99455.16;;;15.09;74.69
77171;BME280;66144;50.020;14.422;2023-09-08T02:49:05;99453.28;;;15.04;74.89
77171;BME280;66144;50.020;14.422;2023-09-08T02:51:31;99453.81;;;15.06;74.54
77171;BME280;66144;50.020;14.422;2023-09-08T02:53:59;99455.41;;;15.07;74.44
77171;BME280;66144;50.020;14.422;2023-09-08T02:56:24;99455.16;;;15.09;73.86
77171;BME280;66144;50.020;14.422;2023-09-08T02:58:50;99447.25;;;15.09;74.21
77171;BME280;66144;50.020;14.422;2023-09-08T03:01:18;99454.88;;;15.05;74.42
77171;BME280;66144;50.020;14.422;2023-09-08T03:03:46;99459.31;;;14.95;74.96
77171;BME280;66144;50.020;14.422;2023-09-08T03:06:12;99457.22;;;14.97;74.68
77171;BME280;66144;50.020;14.422;2023-09-08T03:08:38;99456.94;;;14.93;74.91
77171;BME280;66144;50.020;14.422;2023-09-08T03:11:08;99458.53;;;14.94;73.90
77171;BME280;66144;50.020;14.422;2023-09-08T03:13:40;99456.69;;;14.95;74.29
77171;BME280;66144;50.020;14.422;2023-09-08T03:16:06;99462.72;;;14.90;74.10
77171;BME280;66144;50.020;14.422;2023-09-08T03:18:33;99461.09;;;14.84;74.33
77171;BME280;66144;50.020;14.422;2023-09-08T03:21:01;99463.72;;;14.84;74.67
77171;BME280;66144;50.020;14.422;2023-09-08T03:23:34;99462.41;;;14.86;74.34
77171;BME280;66144;50.020;14.422;2023-09-08T03:26:02;99459.78;;;14.86;74.43
77171;BME280;66144;50.020;14.422;2023-09-08T03:28:28;99455.56;;;14.80;74.78
77171;BME280;66144;50.020;14.422;2023-09-08T03:31:00;99452.16;;;14.80;74.71
77171;BME280;66144;50.020;14.422;2023-09-08T03:33:26;99451.34;;;14.74;74.79
77171;BME280;66144;50.020;14.422;2023-09-08T03:35:51;99452.09;;;14.70;74.79
77171;BME280;66144;50.020;14.422;2023-09-08T03:38:17;99450.00;;;14.72;74.68
77171;BME280;66144;50.020;14.422;2023-09-08T03:40:43;99449.47;;;14.70;74.89
77171;BME280;66144;50.020;14.422;2023-09-08T03:43:09;99451.59;;;14.73;74.63
77171;BME280;66144;50.020;14.422;2023-09-08T03:45:36;99452.88;;;14.70;74.35
77171;BME280;66144;50.020;14.422;2023-09-08T03:48:21;99453.69;;;14.71;74.33
77171;BME280;66144;50.020;14.422;2023-09-08T03:50:50;99453.88;;;14.59;74.67
77171;BME280;66144;50.020;14.422;2023-09-08T03:53:17;99458.03;;;14.50;75.02
77171;BME280;66144;50.020;14.422;2023-09-08T03:55:43;99450.97;;;14.56;74.83
77171;BME280;66144;50.020;14.422;2023-09-08T03:58:08;99458.59;;;14.57;74.35
77171;BME280;66144;50.020;14.422;2023-09-08T04:00:34;99450.97;;;14.56;74.87
77171;BME280;66144;50.020;14.422;2023-09-08T04:03:00;99450.19;;;14.55;74.59
77171;BME280;66144;50.020;14.422;2023-09-08T04:05:25;99454.91;;;14.53;74.65
77171;BME280;66144;50.020;14.422;2023-09-08T04:07:51;99454.59;;;14.49;74.67
77171;BME280;66144;50.020;14.422;2023-09-08T04:10:16;99459.31;;;14.47;74.52
77171;BME280;66144;50.020;14.422;2023-09-08T04:12:42;99458.25;;;14.43;74.40
77171;BME280;66144;50.020;14.422;2023-09-08T04:15:08;99454.84;;;14.43;74.77
77171;BME280;66144;50.020;14.422;2023-09-08T04:17:34;99456.16;;;14.45;74.46
77171;BME280;66144;50.020;14.422;2023-09-08T04:20:04;99453.78;;;14.44;74.22
77171;BME280;66144;50.020;14.422;2023-09-08T04:22:30;99465.09;;;14.44;74.27
77171;BME280;66144;50.020;14.422;2023-09-08T04:24:56;99464.56;;;14.42;74.39
77171;BME280;66144;50.020;14.422;2023-09-08T04:27:22;99465.03;;;14.39;74.56
77171;BME280;66144;50.020;14.422;2023-09-08T04:29:48;99468.19;;;14.36;74.73
77171;BME280;66144;50.020;14.422;2023-09-08T04:32:13;99464.75;;;14.36;74.49
77171;BME280;66144;50.020;14.422;2023-09-08T04:34:41;99468.72;;;14.38;74.53
77171;BME280;66144;50.020;14.422;2023-09-08T04:37:07;99466.34;;;14.37;74.45
77171;BME280;66144;50.020;14.422;2023-09-08T04:39:33;99478.16;;;14.34;74.62
77171;BME280;66144;50.020;14.422;2023-09-08T04:41:59;99475.25;;;14.36;74.35
77171;BME280;66144;50.020;14.422;2023-09-08T04:44:25;99471.56;;;14.32;74.60
77171;BME280;66144;50.020;14.422;2023-09-08T04:46:52;99468.94;;;14.32;74.52
77171;BME280;66144;50.020;14.422;2023-09-08T04:49:17;99484.94;;;14.30;75.14
77171;BME280;66144;50.020;14.422;2023-09-08T04:51:43;99477.56;;;14.27;74.79
77171;BME280;66144;50.020;14.422;2023-09-08T04:54:17;99478.91;;;14.30;74.63
77171;BME280;66144;50.020;14.422;2023-09-08T04:56:47;99474.72;;;14.34;74.40
77171;BME280;66144;50.020;14.422;2023-09-08T04:59:13;99477.31;;;14.29;74.70
77171;BME280;66144;50.020;14.422;2023-09-08T05:01:38;99476.81;;;14.32;74.49
77171;BME280;66144;50.020;14.422;2023-09-08T05:04:05;99473.38;;;14.31;74.72
77171;BME280;66144;50.020;14.422;2023-09-08T05:06:30;99478.91;;;14.30;75.18
77171;BME280;66144;50.020;14.422;2023-09-08T05:08:56;99472.34;;;14.32;75.23
77171;BME280;66144;50.020;14.422;2023-09-08T05:11:21;99477.91;;;14.36;74.98
77171;BME280;66144;50.020;14.422;2023-09-08T05:13:47;99480.28;;;14.37;74.90
77171;BME280;66144;50.020;14.422;2023-09-08T05:16:12;99474.72;;;14.34;75.22
77171;BME280;66144;50.020;14.422;2023-09-08T05:18:39;99477.66;;;14.37;74.98
77171;BME280;66144;50.020;14.422;2023-09-08T05:21:10;99476.59;;;14.38;75.49
77171;BME280;66144;50.020;14.422;2023-09-08T05:23:39;99481.06;;;14.38;75.11
77171;BME280;66144;50.020;14.422;2023-09-08T05:26:07;99483.44;;;14.39;76.04
77171;BME280;66144;50.020;14.422;2023-09-08T05:28:35;99479.81;;;14.40;75.83
77171;BME280;66144;50.020;14.422;2023-09-08T05:31:03;99485.63;;;14.47;75.77
77171;BME280;66144;50.020;14.422;2023-09-08T05:33:31;99478.81;;;14.51;75.74
77171;BME280;66144;50.020;14.422;2023-09-08T05:36:10;99482.00;;;14.59;75.72
77171;BME280;66144;50.020;14.422;2023-09-08T05:38:36;99479.38;;;14.59;75.61
77171;BME280;66144;50.020;14.422;2023-09-08T05:41:10;99483.06;;;14.63;75.83
77171;BME280;66144;50.020;14.422;2023-09-08T05:43:41;99477.84;;;14.68;75.54
77171;BME280;66144;50.020;14.422;2023-09-08T05:46:12;99475.72;;;14.65;76.02
77171;BME280;66144;50.020;14.422;2023-09-08T05:48:44;99474.44;;;14.67;75.96
77171;BME280;66144;50.020;14.422;2023-09-08T05:51:10;99478.44;;;14.80;75.86
77171;BME280;66144;50.020;14.422;2023-09-08T05:53:43;99479.25;;;14.85;76.12
77171;BME280;66144;50.020;14.422;2023-09-08T05:56:23;99477.72;;;14.95;76.70
77171;BME280;66144;50.020;14.422;2023-09-08T05:58:55;99480.91;;;14.97;76.24
77171;BME280;66144;50.020;14.422;2023-09-08T06:01:21;99481.19;;;15.05;76.38
77171;BME280;66144;50.020;14.422;2023-09-08T06:03:52;99485.44;;;15.16;75.90
77171;BME280;66144;50.020;14.422;2023-09-08T06:06:20;99478.09;;;15.24;75.63
77171;BME280;66144;50.020;14.422;2023-09-08T06:08:48;99479.44;;;15.31;76.22
77171;BME280;66144;50.020;14.422;2023-09-08T06:11:19;99475.75;;;15.42;75.45
77171;BME280;66144;50.020;14.422;2023-09-08T06:13:49;99482.16;;;15.57;75.68
77171;BME280;66144;50.020;14.422;2023-09-08T06:16:20;99479.28;;;15.73;75.62
77171;BME280;66144;50.020;14.422;2023-09-08T06:18:47;99477.19;;;15.96;75.62
77171;BME280;66144;50.020;14.422;2023-09-08T06:21:13;99480.59;;;16.32;74.36
77171;BME280;66144;50.020;14.422;2023-09-08T06:23:44;99468.66;;;16.80;72.72
77171;BME280;66144;50.020;14.422;2023-09-08T06:26:13;99473.75;;;17.25;71.57
77171;BME280;66144;50.020;14.422;2023-09-08T06:28:41;99471.31;;;17.34;71.38
77171;BME280;66144;50.020;14.422;2023-09-08T06:31:08;99467.84;;;17.39;71.68
77171;BME280;66144;50.020;14.422;2023-09-08T06:33:34;99467.38;;;17.32;71.37
77171;BME280;66144;50.020;14.422;2023-09-08T06:36:00;99476.38;;;17.25;71.90
77171;BME280;66144;50.020;14.422;2023-09-08T06:38:26;99466.88;;;17.24;72.60
77171;BME280;66144;50.020;14.422;2023-09-08T06:40:54;99470.31;;;17.25;72.61
77171;BME280;66144;50.020;14.422;2023-09-08T06:43:20;99475.59;;;17.25;72.89
77171;BME280;66144;50.020;14.422;2023-09-08T06:45:51;99472.34;;;17.33;73.42
77171;BME280;66144;50.020;14.422;2023-09-08T06:48:19;99477.34;;;17.40;73.55
77171;BME280;66144;50.020;14.422;2023-09-08T06:50:57;99473.38;;;17.42;73.68
77171;BME280;66144;50.020;14.422;2023-09-08T06:53:24;99473.09;;;17.49;73.54
77171;BME280;66144;50.020;14.422;2023-09-08T06:55:49;99468.28;;;17.56;73.82
77171;BME280;66144;50.020;14.422;2023-09-08T06:58:14;99469.31;;;17.65;74.18
77171;BME280;66144;50.020;14.422;2023-09-08T07:00:40;99468.69;;;17.78;73.28
77171;BME280;66144;50.020;14.422;2023-09-08T07:03:09;99472.84;;;17.89;73.01
77171;BME280;66144;50.020;14.422;2023-09-08T07:05:38;99476.41;;;18.04;72.89
77171;BME280;66144;50.020;14.422;2023-09-08T07:08:08;99476.97;;;18.29;71.96
77171;BME280;66144;50.020;14.422;2023-09-08T07:13:55;99467.13;;;19.68;68.09
77171;BME280;66144;50.020;14.422;2023-09-08T07:16:20;99457.38;;;20.28;66.71
77171;BME280;66144;50.020;14.422;2023-09-08T07:18:49;99466.97;;;21.25;65.11
77171;BME280;66144;50.020;14.422;2023-09-08T07:21:14;99466.16;;;22.28;59.57
77171;BME280;66144;50.020;14.422;2023-09-08T07:23:40;99469.22;;;22.92;58.26
77171;BME280;66144;50.020;14.422;2023-09-08T07:26:05;99461.03;;;23.62;56.14
77171;BME280;66144;50.020;14.422;2023-09-08T07:28:31;99459.47;;;24.34;54.55
77171;BME280;66144;50.020;14.422;2023-09-08T07:31:04;99454.81;;;24.90;53.23
77171;BME280;66144;50.020;14.422;2023-09-08T07:33:29;99448.25;;;25.91;50.72
77171;BME280;66144;50.020;14.422;2023-09-08T07:35:55;99458.06;;;26.44;50.97
77171;BME280;66144;50.020;14.422;2023-09-08T07:38:21;99452.47;;;27.38;45.54
77171;BME280;66144;50.020;14.422;2023-09-08T07:40:47;99454.25;;;28.02;44.92
77171;BME280;66144;50.020;14.422;2023-09-08T07:43:21;99456.19;;;28.80;43.49
77171;BME280;66144;50.020;14.422;2023-09-08T07:45:52;99458.50;;;29.36;43.95
77171;BME280;66144;50.020;14.422;2023-09-08T07:48:21;99452.63;;;29.69;41.32
77171;BME280;66144;50.020;14.422;2023-09-08T07:50:50;99455.53;;;29.99;40.46
77171;BME280;66144;50.020;14.422;2023-09-08T08:00:02;99456.66;;;31.23;36.43
77171;BME280;66144;50.020;14.422;2023-09-08T08:02:29;99455.66;;;31.68;38.02
77171;BME280;66144;50.020;14.422;2023-09-08T08:04:55;99460.72;;;32.10;37.66
77171;BME280;66144;50.020;14.422;2023-09-08T08:07:21;99448.25;;;32.02;35.79
77171;BME280;66144;50.020;14.422;2023-09-08T08:09:47;99453.59;;;32.36;36.43
77171;BME280;66144;50.020;14.422;2023-09-08T08:12:12;99447.00;;;32.33;37.43
77171;BME280;66144;50.020;14.422;2023-09-08T08:14:38;99444.56;;;32.72;37.17
77171;BME280;66144;50.020;14.422;2023-09-08T08:17:04;99445.19;;;33.13;36.10
77171;BME280;66144;50.020;14.422;2023-09-08T08:19:29;99446.25;;;32.94;35.10
77171;BME280;66144;50.020;14.422;2023-09-08T08:21:55;99444.56;;;33.41;34.05
77171;BME280;66144;50.020;14.422;2023-09-08T08:24:22;99438.09;;;33.81;33.82
77171;BME280;66144;50.020;14.422;2023-09-08T08:26:47;99436.94;;;33.89;32.71
77171;BME280;66144;50.020;14.422;2023-09-08T08:29:13;99436.94;;;34.07;32.75
77171;BME280;66144;50.020;14.422;2023-09-08T08:31:38;99433.84;;;33.84;32.25
77171;BME280;66144;50.020;14.422;2023-09-08T08:34:03;99432.31;;;34.11;33.36
77171;BME280;66144;50.020;14.422;2023-09-08T08:36:30;99428.41;;;33.91;33.61
77171;BME280;66144;50.020;14.422;2023-09-08T08:38:55;99430.16;;;33.23;33.86
77171;BME280;66144;50.020;14.422;2023-09-08T08:41:21;99424.00;;;32.60;35.39
77171;BME280;66144;50.020;14.422;2023-09-08T08:43:47;99440.28;;;31.76;37.18
77171;BME280;66144;50.020;14.422;2023-09-08T08:46:13;99432.47;;;30.51;38.94
77171;BME280;66144;50.020;14.422;2023-09-08T08:48:40;99430.34;;;30.37;38.84
77171;BME280;66144;50.020;14.422;2023-09-08T08:51:08;99428.84;;;29.52;37.94
77171;BME280;66144;50.020;14.422;2023-09-08T08:53:34;99425.06;;;29.37;38.57
77171;BME280;66144;50.020;14.422;2023-09-08T08:56:00;99418.13;;;29.17;36.72
77171;BME280;66144;50.020;14.422;2023-09-08T08:58:27;99422.13;;;28.72;36.06
77171;BME280;66144;50.020;14.422;2023-09-08T09:00:53;99424.06;;;28.72;37.67
77171;BME280;66144;50.020;14.422;2023-09-08T09:03:23;99416.38;;;29.25;36.25
77171;BME280;66144;50.020;14.422;2023-09-08T09:05:49;99417.41;;;29.78;35.13
77171;BME280;66144;50.020;14.422;2023-09-08T09:08:16;99411.56;;;29.53;35.33
77171;BME280;66144;50.020;14.422;2023-09-08T09:10:41;99418.56;;;29.19;34.52
77171;BME280;66144;50.020;14.422;2023-09-08T09:13:07;99411.63;;;29.18;34.50
77171;BME280;66144;50.020;14.422;2023-09-08T09:15:32;99414.06;;;28.88;35.97
77171;BME280;66144;50.020;14.422;2023-09-08T09:18:05;99411.63;;;28.48;36.38
77171;BME280;66144;50.020;14.422;2023-09-08T09:20:31;99408.13;;;28.16;36.38
77171;BME280;66144;50.020;14.422;2023-09-08T09:22:57;99409.81;;;28.21;38.46
77171;BME280;66144;50.020;14.422;2023-09-08T09:25:27;99401.44;;;27.94;37.65
77171;BME280;66144;50.020;14.422;2023-09-08T09:27:55;99406.91;;;27.82;37.72
77171;BME280;66144;50.020;14.422;2023-09-08T09:30:21;99403.31;;;27.62;37.99
77171;BME280;66144;50.020;14.422;2023-09-08T09:32:47;99403.34;;;27.22;38.41
77171;BME280;66144;50.020;14.422;2023-09-08T09:35:15;99403.41;;;27.10;38.15
77171;BME280;66144;50.020;14.422;2023-09-08T09:37:41;99404.84;;;27.07;39.78
77171;BME280;66144;50.020;14.422;2023-09-08T09:40:08;99405.19;;;27.06;39.55
77171;BME280;66144;50.020;14.422;2023-09-08T09:42:38;99397.41;;;26.76;38.49
77171;BME280;66144;50.020;14.422;2023-09-08T09:45:06;99399.84;;;26.94;38.77
77171;BME280;66144;50.020;14.422;2023-09-08T09:47:32;99403.19;;;26.78;39.31
77171;BME280;66144;50.020;14.422;2023-09-08T09:49:57;99400.78;;;26.73;39.32
77171;BME280;66144;50.020;14.422;2023-09-08T09:52:24;99398.09;;;26.61;39.68
77171;BME280;66144;50.020;14.422;2023-09-08T09:54:52;99397.72;;;26.75;39.99
77171;BME280;66144;50.020;14.422;2023-09-08T09:57:21;99398.72;;;26.82;39.63
77171;BME280;66144;50.020;14.422;2023-09-08T09:59:46;99393.25;;;26.79;38.28
77171;BME280;66144;50.020;14.422;2023-09-08T10:02:16;99395.03;;;26.87;38.93
77171;BME280;66144;50.020;14.422;2023-09-08T10:04:45;99401.84;;;26.97;40.11
77171;BME280;66144;50.020;14.422;2023-09-08T10:07:12;99392.25;;;26.83;38.21
77171;BME280;66144;50.020;14.422;2023-09-08T10:09:38;99399.63;;;26.87;39.96
77171;BME280;66144;50.020;14.422;2023-09-08T10:12:05;99390.72;;;27.23;39.07
77171;BME280;66144;50.020;14.422;2023-09-08T10:14:32;99391.31;;;27.44;39.56
77171;BME280;66144;50.020;14.422;2023-09-08T10:17:01;99388.28;;;27.45;38.21
77171;BME280;66144;50.020;14.422;2023-09-08T10:19:27;99386.22;;;27.55;37.86
77171;BME280;66144;50.020;14.422;2023-09-08T10:22:00;99388.19;;;27.70;39.29
77171;BME280;66144;50.020;14.422;2023-09-08T10:24:33;99376.69;;;27.69;37.22
77171;BME280;66144;50.020;14.422;2023-09-08T10:29:28;99368.78;;;27.92;38.40
77171;BME280;66144;50.020;14.422;2023-09-08T10:31:55;99376.06;;;27.76;37.12
77171;BME280;66144;50.020;14.422;2023-09-08T10:34:24;99365.16;;;28.00;37.44
77171;BME280;66144;50.020;14.422;2023-09-08T10:36:49;99363.84;;;28.10;37.73
77171;BME280;66144;50.020;14.422;2023-09-08T10:39:28;99368.81;;;28.24;37.64
77171;BME280;66144;50.020;14.422;2023-09-08T10:45:14;99346.56;;;28.58;37.05
77171;BME280;66144;50.020;14.422;2023-09-08T10:47:54;99353.66;;;28.66;37.34
77171;BME280;66144;50.020;14.422;2023-09-08T10:50:32;99342.72;;;28.94;35.13
77171;BME280;66144;50.020;14.422;2023-09-08T10:53:24;99346.88;;;29.11;33.46
77171;BME280;66144;50.020;14.422;2023-09-08T10:55:52;99347.88;;;29.41;34.04
77171;BME280;66144;50.020;14.422;2023-09-08T10:58:38;99340.84;;;29.56;33.48
77171;BME280;66144;50.020;14.422;2023-09-08T11:01:07;99341.69;;;29.60;34.72
77171;BME280;66144;50.020;14.422;2023-09-08T11:06:02;99340.88;;;30.05;31.81
77171;BME280;66144;50.020;14.422;2023-09-08T11:08:28;99336.59;;;30.27;32.80
77171;BME280;66144;50.020;14.422;2023-09-08T11:10:55;99346.44;;;29.93;32.58
77171;BME280;66144;50.020;14.422;2023-09-08T11:13:20;99336.78;;;30.38;32.75
77171;BME280;66144;50.020;14.422;2023-09-08T11:15:46;99333.19;;;30.30;32.07
77171;BME280;66144;50.020;14.422;2023-09-08T11:18:11;99329.72;;;30.30;33.02
77171;BME280;66144;50.020;14.422;2023-09-08T11:20:37;99329.47;;;30.38;30.45
77171;BME280;66144;50.020;14.422;2023-09-08T11:23:03;99331.78;;;30.66;32.01
77171;BME280;66144;50.020;14.422;2023-09-08T11:25:31;99328.03;;;30.74;30.22
77171;BME280;66144;50.020;14.422;2023-09-08T11:27:58;99332.84;;;30.91;31.11
77171;BME280;66144;50.020;14.422;2023-09-08T11:30:24;99330.84;;;31.15;31.53
77171;BME280;66144;50.020;14.422;2023-09-08T11:32:50;99320.00;;;31.11;29.19
77171;BME280;66144;50.020;14.422;2023-09-08T11:35:16;99317.94;;;31.35;30.68
77171;BME280;66144;50.020;14.422;2023-09-08T11:37:46;99324.56;;;31.44;29.47
77171;BME280;66144;50.020;14.422;2023-09-08T11:40:12;99326.72;;;31.28;28.56
77171;BME280;66144;50.020;14.422;2023-09-08T11:42:39;99317.94;;;31.35;28.95
77171;BME280;66144;50.020;14.422;2023-09-08T11:45:16;99314.88;;;31.40;28.05
77171;BME280;66144;50.020;14.422;2023-09-08T11:47:48;99313.94;;;31.62;30.51
77171;BME280;66144;50.020;14.422;2023-09-08T11:50:18;99321.13;;;31.47;29.57
77171;BME280;66144;50.020;14.422;2023-09-08T11:52:53;99319.63;;;31.50;28.63
77171;BME280;66144;50.020;14.422;2023-09-08T11:55:20;99309.84;;;31.35;28.96
77171;BME280;66144;50.020;14.422;2023-09-08T11:57:52;99309.44;;;31.33;28.79
77171;BME280;66144;50.020;14.422;2023-09-08T12:00:20;99308.72;;;31.43;29.24
77171;BME280;66144;50.020;14.422;2023-09-08T12:02:49;99309.63;;;31.57;30.54
77171;BME280;66144;50.020;14.422;2023-09-08T12:05:22;99306.00;;;31.39;30.04
77171;BME280;66144;50.020;14.422;2023-09-08T12:07:50;99293.19;;;31.29;28.49
77171;BME280;66144;50.020;14.422;2023-09-08T12:10:16;99302.69;;;31.56;29.32
77171;BME280;66144;50.020;14.422;2023-09-08T12:15:09;99297.97;;;31.46;28.23
77171;BME280;66144;50.020;14.422;2023-09-08T12:17:49;99297.84;;;31.32;26.57
77171;BME280;66144;50.020;14.422;2023-09-08T12:20:15;99297.81;;;31.29;27.13
77171;BME280;66144;50.020;14.422;2023-09-08T12:22:48;99289.25;;;31.23;28.59
77171;BME280;66144;50.020;14.422;2023-09-08T12:25:15;99282.16;;;31.08;27.93
77171;BME280;66144;50.020;14.422;2023-09-08T12:27:42;99283.63;;;30.68;28.10
77171;BME280;66144;50.020;14.422;2023-09-08T12:30:08;99281.03;;;30.75;29.35
77171;BME280;66144;50.020;14.422;2023-09-08T12:32:35;99276.19;;;30.91;28.16
77171;BME280;66144;50.020;14.422;2023-09-08T12:35:03;99274.22;;;30.88;28.76
77171;BME280;66144;50.020;14.422;2023-09-08T12:37:29;99273.72;;;30.76;27.70
77171;BME280;66144;50.020;14.422;2023-09-08T12:39:56;99266.59;;;30.94;27.24
77171;BME280;66144;50.020;14.422;2023-09-08T12:42:22;99268.41;;;30.86;28.17
77171;BME280;66144;50.020;14.422;2023-09-08T12:44:51;99268.78;;;30.85;27.79
77171;BME280;66144;50.020;14.422;2023-09-08T12:47:16;99261.66;;;31.03;30.02
77171;BME280;66144;50.020;14.422;2023-09-08T12:49:42;99255.06;;;30.97;29.50
77171;BME280;66144;50.020;14.422;2023-09-08T12:52:07;99261.97;;;30.95;28.09
77171;BME280;66144;50.020;14.422;2023-09-08T12:54:32;99267.38;;;30.95;29.06
77171;BME280;66144;50.020;14.422;2023-09-08T12:56:58;99261.31;;;30.71;28.39
77171;BME280;66144;50.020;14.422;2023-09-08T12:59:23;99264.63;;;30.58;28.89
77171;BME280;66144;50.020;14.422;2023-09-08T13:01:49;99255.84;;;30.64;28.91
77171;BME280;66144;50.020;14.422;2023-09-08T13:04:14;99256.19;;;30.59;29.90
77171;BME280;66144;50.020;14.422;2023-09-08T13:06:40;99253.06;;;30.57;28.73
77171;BME280;66144;50.020;14.422;2023-09-08T13:09:05;99260.63;;;30.48;28.17
77171;BME280;66144;50.020;14.422;2023-09-08T13:11:31;99262.06;;;30.38;26.94
77171;BME280;66144;50.020;14.422;2023-09-08T13:13:56;99252.38;;;30.34;27.58
77171;BME280;66144;50.020;14.422;2023-09-08T13:16:22;99251.72;;;30.14;27.87